createdAt,value
2018-05-29T00:02:09.642Z,18.10
2018-05-29T00:04:37.177Z,18.43
2018-05-29T00:07:04.700Z,18.77
2018-05-29T00:09:32.223Z,18.57
2018-05-29T00:11:59.832Z,19.27
2018-05-29T00:14:28.030Z,18.17
2018-05-29T00:16:55.553Z,18.47
2018-05-29T00:19:23.106Z,19.60
2018-05-29T00:21:50.619Z,19.00
2018-05-29T00:24:18.150Z,18.47
2018-05-29T00:26:45.682Z,19.67
2018-05-29T00:29:13.231Z,19.97
2018-05-29T00:31:40.747Z,19.23
2018-05-29T00:34:08.271Z,19.00
2018-05-29T00:36:35.787Z,19.93
2018-05-29T00:39:03.322Z,19.63
2018-05-29T00:41:30.950Z,19.77
2018-05-29T00:43:58.486Z,18.77
2018-05-29T00:46:26.328Z,19.10
2018-05-29T00:48:53.858Z,18.17
2018-05-29T00:51:21.380Z,19.30
2018-05-29T00:53:48.912Z,19.77
2018-05-29T00:56:16.427Z,19.10
2018-05-29T00:58:43.947Z,18.57
2018-05-29T01:01:11.463Z,19.50
2018-05-29T01:03:38.982Z,19.67
2018-05-29T01:06:06.525Z,21.10
2018-05-29T01:08:34.079Z,19.33
2018-05-29T01:11:01.599Z,20.03
2018-05-29T01:13:29.111Z,21.27
2018-05-29T01:15:56.630Z,20.57
2018-05-29T01:18:24.142Z,21.37
2018-05-29T01:20:51.654Z,20.67
2018-05-29T01:23:19.227Z,21.90
2018-05-29T01:25:46.743Z,22.23
2018-05-29T01:28:14.270Z,21.50
2018-05-29T01:30:41.797Z,22.57
2018-05-29T01:33:09.323Z,22.37
2018-05-29T01:35:36.846Z,21.43
2018-05-29T01:38:04.363Z,20.90
2018-05-29T01:40:31.876Z,22.20
2018-05-29T01:42:59.416Z,22.03
2018-05-29T01:45:26.940Z,22.17
2018-05-29T01:47:54.458Z,24.50
2018-05-29T01:50:21.979Z,22.63
2018-05-29T01:52:49.503Z,22.90
2018-05-29T01:55:17.025Z,25.37
2018-05-29T01:57:44.539Z,23.90
2018-05-29T02:00:12.055Z,23.83
2018-05-29T02:02:39.599Z,24.00
2018-05-29T02:05:07.131Z,25.97
2018-05-29T02:07:35.418Z,23.83
2018-05-29T02:10:02.934Z,24.27
2018-05-29T02:12:30.454Z,26.00
2018-05-29T02:14:57.971Z,25.87
2018-05-29T02:17:25.480Z,25.73
2018-05-29T02:19:52.995Z,27.03
2018-05-29T02:22:20.519Z,26.10
2018-05-29T02:24:48.038Z,25.20
2018-05-29T02:27:15.563Z,24.53
2018-05-29T02:29:43.083Z,23.73
2018-05-29T02:32:10.597Z,23.80
2018-05-29T02:34:38.151Z,23.77
2018-05-29T02:37:05.672Z,25.30
2018-05-29T02:39:33.184Z,24.10
2018-05-29T02:42:00.703Z,23.83
2018-05-29T02:44:28.224Z,24.40
2018-05-29T02:46:55.751Z,25.00
2018-05-29T02:49:23.276Z,24.50
2018-05-29T02:51:50.792Z,25.80
2018-05-29T02:54:18.315Z,24.67
2018-05-29T02:56:45.831Z,25.77
2018-05-29T02:59:13.351Z,26.37
2018-05-29T03:01:40.878Z,27.33
2018-05-29T03:04:08.391Z,25.30
2018-05-29T03:06:35.908Z,26.87
2018-05-29T03:09:03.431Z,29.17
2018-05-29T03:11:30.950Z,27.60
2018-05-29T03:13:58.507Z,28.53
2018-05-29T03:16:26.035Z,27.50
2018-05-29T03:18:53.562Z,27.17
2018-05-29T03:21:21.084Z,26.83
2018-05-29T03:23:48.622Z,26.00
2018-05-29T03:26:16.139Z,26.13
2018-05-29T03:28:43.686Z,26.47
2018-05-29T03:31:11.231Z,27.47
2018-05-29T03:33:38.780Z,27.23
2018-05-29T03:36:07.068Z,29.00
2018-05-29T03:38:34.602Z,28.60
2018-05-29T03:41:02.124Z,28.47
2018-05-29T03:43:29.645Z,28.70
2018-05-29T03:45:57.159Z,26.50
2018-05-29T03:48:24.684Z,30.07
2018-05-29T03:50:52.205Z,27.47
2018-05-29T03:53:19.723Z,28.47
2018-05-29T03:55:47.250Z,28.57
2018-05-29T03:58:14.771Z,30.67
2018-05-29T04:00:42.299Z,28.77
2018-05-29T04:03:10.702Z,30.27
2018-05-29T04:05:38.219Z,32.33
2018-05-29T04:08:06.507Z,31.03
2018-05-29T04:10:34.025Z,30.03
2018-05-29T04:13:01.541Z,31.83
2018-05-29T04:15:29.067Z,30.60
2018-05-29T04:17:56.587Z,31.53
2018-05-29T04:20:24.103Z,31.93
2018-05-29T04:22:51.633Z,32.43
2018-05-29T04:25:19.152Z,31.90
2018-05-29T04:27:46.883Z,32.67
2018-05-29T04:30:15.167Z,32.17
2018-05-29T04:32:42.694Z,32.60
2018-05-29T04:35:10.212Z,32.03
2018-05-29T04:37:37.798Z,31.93
2018-05-29T04:40:05.329Z,32.87
2018-05-29T04:42:32.863Z,31.63
2018-05-29T04:45:00.383Z,32.73
2018-05-29T04:47:27.912Z,32.13
2018-05-29T04:49:57.614Z,32.63
2018-05-29T04:52:25.141Z,31.90
2018-05-29T04:54:52.670Z,30.93
2018-05-29T04:57:20.767Z,32.13
2018-05-29T04:59:48.289Z,32.20
2018-05-29T05:02:15.815Z,31.97
2018-05-29T05:04:43.328Z,32.93
2018-05-29T05:07:10.879Z,33.63
2018-05-29T05:09:38.393Z,33.87
2018-05-29T05:12:05.908Z,33.20
2018-05-29T05:14:33.436Z,33.37
2018-05-29T05:17:00.956Z,32.20
2018-05-29T05:19:28.471Z,33.97
2018-05-29T05:21:55.999Z,34.17
2018-05-29T05:24:23.520Z,33.83
2018-05-29T05:26:51.057Z,33.80
2018-05-29T05:29:18.597Z,32.90
2018-05-29T05:31:46.124Z,32.67
2018-05-29T05:34:13.650Z,33.07
2018-05-29T05:36:41.171Z,33.00
2018-05-29T05:39:08.692Z,32.00
2018-05-29T05:41:36.214Z,32.10
2018-05-29T05:44:04.644Z,29.77
2018-05-29T05:46:32.162Z,30.93
2018-05-29T05:49:00.386Z,30.83
2018-05-29T05:51:29.284Z,31.53
2018-05-29T05:53:56.810Z,29.23
2018-05-29T05:56:24.332Z,29.87
2018-05-29T05:58:51.875Z,29.87
2018-05-29T06:01:19.782Z,28.40
2018-05-29T06:03:47.308Z,26.90
2018-05-29T06:06:14.834Z,24.97
2018-05-29T06:08:42.359Z,25.23
2018-05-29T06:11:09.882Z,25.60
2018-05-29T06:13:38.054Z,23.83
2018-05-29T06:16:05.578Z,25.02
2018-05-29T06:18:33.095Z,20.90
2018-05-29T06:21:00.616Z,20.98
2018-05-29T06:23:28.145Z,19.92
2018-05-29T06:25:55.668Z,19.20
2018-05-29T06:28:23.516Z,20.20
2018-05-29T06:30:51.044Z,18.42
2018-05-29T06:33:18.572Z,16.75
2018-05-29T06:35:46.097Z,16.73
2018-05-29T06:38:13.620Z,16.70
2018-05-29T06:40:41.953Z,16.55
2018-05-29T06:43:09.491Z,15.63
2018-05-29T06:45:37.277Z,15.25
2018-05-29T06:48:04.800Z,15.20
2018-05-29T06:50:33.151Z,16.60
2018-05-29T06:53:00.664Z,15.32
2018-05-29T06:55:28.198Z,15.27
2018-05-29T06:57:56.482Z,15.80
2018-05-29T07:00:24.033Z,15.48
2018-05-29T07:02:51.550Z,15.55
2018-05-29T07:05:19.071Z,13.90
2018-05-29T07:07:47.346Z,14.25
2018-05-29T07:10:14.859Z,14.05
2018-05-29T07:12:42.379Z,13.45
2018-05-29T07:15:09.940Z,14.00
2018-05-29T07:17:37.467Z,14.48
2018-05-29T07:20:04.998Z,20.92
2018-05-29T07:22:32.526Z,13.50
2018-05-29T07:25:00.058Z,13.32
2018-05-29T07:27:27.580Z,12.93
2018-05-29T07:29:55.111Z,12.23
2018-05-29T07:32:22.627Z,12.48
2018-05-29T07:34:50.190Z,13.55
2018-05-29T07:37:18.543Z,14.10
2018-05-29T07:39:46.132Z,13.18
2018-05-29T07:42:13.627Z,13.32
2018-05-29T07:44:41.151Z,13.27
2018-05-29T07:47:08.732Z,12.63
2018-05-29T07:49:36.256Z,12.93
2018-05-29T07:52:03.851Z,12.52
2018-05-29T07:54:31.365Z,11.27
2018-05-29T07:56:58.886Z,12.23
2018-05-29T07:59:26.485Z,12.80
2018-05-29T08:01:54.002Z,12.25
2018-05-29T08:04:21.877Z,11.88
2018-05-29T08:06:49.560Z,12.20
2018-05-29T08:09:17.090Z,13.00
2018-05-29T08:11:44.624Z,11.95
2018-05-29T08:14:12.163Z,11.43
2018-05-29T08:16:39.679Z,11.80
2018-05-29T08:19:07.191Z,12.32
2018-05-29T08:21:34.745Z,13.57
2018-05-29T08:24:02.268Z,13.05
2018-05-29T08:26:29.779Z,13.50
2018-05-29T08:28:57.304Z,13.35
2018-05-29T08:31:25.170Z,12.48
2018-05-29T08:33:53.575Z,14.23
2018-05-29T08:36:21.350Z,14.23
2018-05-29T08:38:48.877Z,17.85
2018-05-29T08:41:16.410Z,13.30
2018-05-29T08:43:43.931Z,12.68
2018-05-29T08:46:11.446Z,13.70
2018-05-29T08:48:38.963Z,11.63
2018-05-29T08:51:07.251Z,12.30
2018-05-29T08:53:34.767Z,11.55
2018-05-29T08:56:02.332Z,12.57
2018-05-29T08:58:29.859Z,13.48
2018-05-29T09:00:57.385Z,13.13
2018-05-29T09:03:25.723Z,13.80
2018-05-29T09:05:53.239Z,12.15
2018-05-29T09:08:20.787Z,11.85
2018-05-29T09:10:49.123Z,12.45
2018-05-29T09:13:16.940Z,10.95
2018-05-29T09:15:44.511Z,11.23
2018-05-29T09:18:12.047Z,9.60
2018-05-29T09:20:40.331Z,10.23
2018-05-29T09:23:07.889Z,10.75
2018-05-29T09:25:35.439Z,10.05
2018-05-29T09:28:02.969Z,9.95
2018-05-29T09:30:30.489Z,9.38
2018-05-29T09:32:58.412Z,10.32
2018-05-29T09:35:25.987Z,11.07
2018-05-29T09:37:54.235Z,9.43
2018-05-29T09:40:21.760Z,9.75
2018-05-29T09:42:49.274Z,10.95
2018-05-29T09:45:16.803Z,10.95
2018-05-29T09:47:44.320Z,9.43
2018-05-29T09:50:12.609Z,9.40
2018-05-29T09:52:40.143Z,9.98
2018-05-29T09:55:07.650Z,9.98
2018-05-29T09:57:35.182Z,10.55
2018-05-29T10:00:03.483Z,11.30
2018-05-29T10:02:31.045Z,11.23
2018-05-29T10:04:58.579Z,11.07
2018-05-29T10:07:26.126Z,10.77
2018-05-29T10:09:53.648Z,11.50
2018-05-29T10:12:22.919Z,12.13
2018-05-29T10:14:50.490Z,12.37
2018-05-29T10:17:18.011Z,12.35
2018-05-29T10:19:45.536Z,11.95
2018-05-29T10:22:13.101Z,12.32
2018-05-29T10:24:40.682Z,13.10
2018-05-29T10:27:08.170Z,13.60
2018-05-29T10:29:35.699Z,13.77
2018-05-29T10:32:03.227Z,13.35
2018-05-29T10:34:30.751Z,14.18
2018-05-29T10:36:58.275Z,12.93
2018-05-29T10:39:25.802Z,12.85
2018-05-29T10:41:53.326Z,13.52
2018-05-29T10:44:21.607Z,13.70
2018-05-29T10:46:49.156Z,14.30
2018-05-29T10:49:16.693Z,13.20
2018-05-29T10:51:44.216Z,14.18
2018-05-29T10:54:11.736Z,13.88
2018-05-29T10:56:40.023Z,13.40
2018-05-29T10:59:07.551Z,14.43
2018-05-29T11:01:36.162Z,12.82
2018-05-29T11:04:03.687Z,12.63
2018-05-29T11:06:31.247Z,12.30
2018-05-29T11:08:58.751Z,12.37
2018-05-29T11:11:26.280Z,12.57
2018-05-29T11:13:53.811Z,12.23
2018-05-29T11:16:21.340Z,12.18
2018-05-29T11:18:48.874Z,12.27
2018-05-29T11:21:17.174Z,12.52
2018-05-29T11:23:44.723Z,13.32
2018-05-29T11:26:13.007Z,12.13
2018-05-29T11:28:40.573Z,12.30
2018-05-29T11:31:08.146Z,12.60
2018-05-29T11:33:36.435Z,13.45
2018-05-29T11:36:03.973Z,12.65
2018-05-29T11:38:31.511Z,13.05
2018-05-29T11:40:59.803Z,12.37
2018-05-29T11:43:27.740Z,12.75
2018-05-29T11:45:55.250Z,13.02
2018-05-29T11:48:22.768Z,12.37
2018-05-29T11:50:50.286Z,12.80
2018-05-29T11:53:17.802Z,13.05
2018-05-29T11:55:47.117Z,12.37
2018-05-29T11:58:14.639Z,12.95
2018-05-29T12:00:42.147Z,12.88
2018-05-29T12:03:09.670Z,13.65
2018-05-29T12:05:37.983Z,13.77
2018-05-29T12:08:05.507Z,14.00
2018-05-29T12:10:33.035Z,13.80
2018-05-29T12:13:00.551Z,13.57
2018-05-29T12:15:28.083Z,13.38
2018-05-29T12:17:55.614Z,14.25
2018-05-29T12:20:23.922Z,14.80
2018-05-29T12:22:52.048Z,14.40
2018-05-29T12:25:19.583Z,13.73
2018-05-29T12:27:47.127Z,13.50
2018-05-29T12:30:14.656Z,14.02
2018-05-29T12:32:42.176Z,13.25
2018-05-29T12:35:09.700Z,14.65
2018-05-29T12:37:37.983Z,14.65
2018-05-29T12:40:05.515Z,14.32
2018-05-29T12:42:33.059Z,14.30
2018-05-29T12:45:00.592Z,13.90
2018-05-29T12:47:28.107Z,13.25
2018-05-29T12:49:55.642Z,14.02
2018-05-29T12:52:23.939Z,14.10
2018-05-29T12:54:51.471Z,13.98
2018-05-29T12:57:19.006Z,13.07
2018-05-29T12:59:46.522Z,14.43
2018-05-29T13:02:14.038Z,13.80
2018-05-29T13:04:41.559Z,13.68
2018-05-29T13:07:09.104Z,13.68
2018-05-29T13:09:36.617Z,13.80
2018-05-29T13:12:04.195Z,13.15
2018-05-29T13:14:31.724Z,13.25
2018-05-29T13:16:59.251Z,14.27
2018-05-29T13:19:26.776Z,14.95
2018-05-29T13:21:54.306Z,14.10
2018-05-29T13:24:21.839Z,15.82
2018-05-29T13:26:49.384Z,14.02
2018-05-29T13:29:16.902Z,19.35
2018-05-29T13:31:44.432Z,17.33
2018-05-29T13:34:11.985Z,15.63
2018-05-29T13:36:39.515Z,17.00
2018-05-29T13:39:07.058Z,15.75
2018-05-29T13:41:34.567Z,16.02
2018-05-29T13:44:02.085Z,15.13
2018-05-29T13:46:29.612Z,16.08
2018-05-29T13:48:57.132Z,14.40
2018-05-29T13:51:25.447Z,15.45
2018-05-29T13:53:52.979Z,15.88
2018-05-29T13:56:21.301Z,16.17
2018-05-29T13:58:48.815Z,15.52
2018-05-29T14:01:16.364Z,15.15
2018-05-29T14:03:43.898Z,15.32
2018-05-29T14:06:11.421Z,15.50
2018-05-29T14:08:38.939Z,15.75
2018-05-29T14:11:06.483Z,17.52
2018-05-29T14:13:34.009Z,16.98
2018-05-29T14:16:01.556Z,14.98
2018-05-29T14:18:29.087Z,14.77
2018-05-29T14:20:56.603Z,16.23
2018-05-29T14:23:24.135Z,16.15
2018-05-29T14:25:51.660Z,14.55
2018-05-29T14:28:19.177Z,13.43
2018-05-29T14:30:46.698Z,12.00
2018-05-29T14:33:14.223Z,12.57
2018-05-29T14:35:41.752Z,20.08
2018-05-29T14:38:09.281Z,28.27
2018-05-29T14:40:37.570Z,15.63
2018-05-29T14:43:05.088Z,12.05
2018-05-29T14:45:32.599Z,10.95
2018-05-29T14:48:00.691Z,12.52
2018-05-29T14:50:28.469Z,10.70
2018-05-29T14:52:55.990Z,11.60
2018-05-29T14:55:23.507Z,13.00
2018-05-29T14:57:51.039Z,11.95
2018-05-29T15:00:18.573Z,14.02
2018-05-29T15:02:46.105Z,12.15
2018-05-29T15:05:13.627Z,12.18
2018-05-29T15:07:41.148Z,13.02
2018-05-29T15:10:08.672Z,12.35
2018-05-29T15:12:36.191Z,11.98
2018-05-29T15:15:03.726Z,11.48
2018-05-29T15:17:32.016Z,15.30
2018-05-29T15:19:59.778Z,12.50
2018-05-29T15:22:27.304Z,16.58
2018-05-29T15:24:54.830Z,24.33
2018-05-29T15:27:22.378Z,12.88
2018-05-29T15:29:49.904Z,15.02
2018-05-29T15:32:17.431Z,13.52
2018-05-29T15:34:44.967Z,13.57
2018-05-29T15:37:12.495Z,15.75
2018-05-29T15:39:40.028Z,13.00
2018-05-29T15:42:07.553Z,14.25
2018-05-29T15:44:35.083Z,14.20
2018-05-29T15:47:02.615Z,14.45
2018-05-29T15:49:30.146Z,17.17
2018-05-29T15:51:57.668Z,18.10
2018-05-29T15:54:25.220Z,14.32
2018-05-29T15:56:52.743Z,13.77
2018-05-29T15:59:20.270Z,13.45
2018-05-29T16:01:47.800Z,14.52
2018-05-29T16:04:15.324Z,13.88
2018-05-29T16:06:42.855Z,13.50
2018-05-29T16:09:10.399Z,14.32
2018-05-29T16:11:37.937Z,14.30
2018-05-29T16:14:05.476Z,13.80
2018-05-29T16:16:33.029Z,14.45
2018-05-29T16:19:00.547Z,14.85
2018-05-29T16:21:28.079Z,13.82
2018-05-29T16:23:56.731Z,13.43
2018-05-29T16:26:24.255Z,14.13
2018-05-29T16:28:52.762Z,13.93
2018-05-29T16:31:20.288Z,13.65
2018-05-29T16:33:47.810Z,13.43
2018-05-29T16:36:15.332Z,12.45
2018-05-29T16:38:42.859Z,12.32
2018-05-29T16:41:10.689Z,16.52
2018-05-29T16:43:38.222Z,12.15
2018-05-29T16:46:06.076Z,12.82
2018-05-29T16:48:33.620Z,12.23
2018-05-29T16:51:01.145Z,13.90
2018-05-29T16:53:28.680Z,12.98
2018-05-29T16:55:56.203Z,12.45
2018-05-29T16:58:23.736Z,11.68
2018-05-29T17:00:52.014Z,8.45
2018-05-29T17:03:19.550Z,8.38
2018-05-29T17:05:47.062Z,9.73
2018-05-29T17:08:14.583Z,10.52
2018-05-29T17:10:42.856Z,10.10
2018-05-29T17:13:10.400Z,10.43
2018-05-29T17:15:37.923Z,9.25
2018-05-29T17:18:05.439Z,10.38
2018-05-29T17:20:32.953Z,10.35
2018-05-29T17:23:00.471Z,10.90
2018-05-29T17:25:28.006Z,10.60
2018-05-29T17:27:55.518Z,13.02
2018-05-29T17:30:23.044Z,11.80
2018-05-29T17:32:50.564Z,13.18
2018-05-29T17:35:18.088Z,14.63
2018-05-29T17:37:45.623Z,10.77
2018-05-29T17:40:13.912Z,12.10
2018-05-29T17:42:41.499Z,11.73
2018-05-29T17:45:09.855Z,12.32
2018-05-29T17:47:37.367Z,9.98
2018-05-29T17:50:04.920Z,11.07
2018-05-29T17:52:32.463Z,11.05
2018-05-29T17:54:59.990Z,13.37
2018-05-29T17:57:27.526Z,10.68
2018-05-29T17:59:55.051Z,10.30
2018-05-29T18:02:22.595Z,11.60
2018-05-29T18:04:50.127Z,11.17
2018-05-29T18:07:18.408Z,10.20
2018-05-29T18:09:45.988Z,11.47
2018-05-29T18:12:14.513Z,11.57
2018-05-29T18:14:42.071Z,12.35
2018-05-29T18:17:09.593Z,12.73
2018-05-29T18:19:37.132Z,12.27
2018-05-29T18:22:04.653Z,12.97
2018-05-29T18:24:32.170Z,14.13
2018-05-29T18:26:59.701Z,14.43
2018-05-29T18:29:27.277Z,15.13
2018-05-29T18:31:54.803Z,17.20
2018-05-29T18:34:22.339Z,16.80
2018-05-29T18:36:49.929Z,16.08
2018-05-29T18:39:17.680Z,16.37
2018-05-29T18:41:45.267Z,16.13
2018-05-29T18:44:12.895Z,17.58
2018-05-29T18:46:41.400Z,18.47
2018-05-29T18:49:09.006Z,17.80
2018-05-29T18:51:37.966Z,16.70
2018-05-29T18:54:06.705Z,18.83
2018-05-29T18:56:34.290Z,17.63
2018-05-29T18:59:01.803Z,17.33
2018-05-29T19:01:29.397Z,15.47
2018-05-29T19:03:56.918Z,13.57
2018-05-29T19:06:24.533Z,12.10
2018-05-29T19:08:52.935Z,10.63
2018-05-29T19:11:20.458Z,11.83
2018-05-29T19:13:47.971Z,11.70
2018-05-29T19:16:15.542Z,11.43
2018-05-29T19:18:43.071Z,10.50
2018-05-29T19:21:11.354Z,10.53
2018-05-29T19:23:38.912Z,12.60
2018-05-29T19:26:06.440Z,14.77
2018-05-29T19:28:34.699Z,11.27
2018-05-29T19:31:02.640Z,10.33
2018-05-29T19:33:30.168Z,10.53
2018-05-29T19:35:57.693Z,9.97
2018-05-29T19:38:25.305Z,10.70
2018-05-29T19:40:52.827Z,9.93
2018-05-29T19:43:20.359Z,10.30
2018-05-29T19:45:47.879Z,11.07
2018-05-29T19:48:15.443Z,11.53
2018-05-29T19:50:42.976Z,11.40
2018-05-29T19:53:10.549Z,10.73
2018-05-29T19:55:38.146Z,11.50
2018-05-29T19:58:05.810Z,11.57
2018-05-29T20:00:33.351Z,10.60
2018-05-29T20:03:00.915Z,11.23
2018-05-29T20:05:29.213Z,11.90
2018-05-29T20:07:56.812Z,12.20
2018-05-29T20:10:24.384Z,12.23
2018-05-29T20:12:51.910Z,12.07
2018-05-29T20:15:19.522Z,11.23
2018-05-29T20:17:47.065Z,12.20
2018-05-29T20:20:14.590Z,11.50
2018-05-29T20:22:42.399Z,13.07
2018-05-29T20:25:09.983Z,13.30
2018-05-29T20:27:37.895Z,12.57
2018-05-29T20:30:05.415Z,13.07
2018-05-29T20:32:32.954Z,11.17
2018-05-29T20:35:00.595Z,11.63
2018-05-29T20:37:28.207Z,13.60
2018-05-29T20:39:55.764Z,13.20
2018-05-29T20:42:23.297Z,14.23
2018-05-29T20:44:51.117Z,15.23
2018-05-29T20:47:18.698Z,13.83
2018-05-29T20:49:46.243Z,13.03
2018-05-29T20:52:14.159Z,13.17
2018-05-29T20:54:41.688Z,13.87
2018-05-29T20:57:09.543Z,15.60
2018-05-29T20:59:37.887Z,13.50
2018-05-29T21:02:05.400Z,12.40
2018-05-29T21:04:33.068Z,12.70
2018-05-29T21:07:00.719Z,12.67
2018-05-29T21:09:28.288Z,13.43
2018-05-29T21:11:55.819Z,12.47
2018-05-29T21:14:23.336Z,12.10
2018-05-29T21:16:50.935Z,12.67
2018-05-29T21:19:18.690Z,11.57
2018-05-29T21:21:46.284Z,11.40
2018-05-29T21:24:13.799Z,12.37
2018-05-29T21:26:42.364Z,12.30
2018-05-29T21:29:09.912Z,13.07
2018-05-29T21:31:37.460Z,12.47
2018-05-29T21:34:04.993Z,13.23
2018-05-29T21:36:32.517Z,12.57
2018-05-29T21:39:00.899Z,12.33
2018-05-29T21:41:28.638Z,12.40
2018-05-29T21:43:56.218Z,14.53
2018-05-29T21:46:23.745Z,12.00
2018-05-29T21:48:51.645Z,11.77
2018-05-29T21:51:19.203Z,13.60
2018-05-29T21:53:46.724Z,14.80
2018-05-29T21:56:14.364Z,12.77
2018-05-29T21:58:41.994Z,14.47
2018-05-29T22:01:10.904Z,15.63
2018-05-29T22:03:38.654Z,13.47
2018-05-29T22:06:06.269Z,14.80
2018-05-29T22:08:33.866Z,20.77
2018-05-29T22:11:01.584Z,20.23
2018-05-29T22:13:29.103Z,20.57
2018-05-29T22:15:56.767Z,19.67
2018-05-29T22:18:24.295Z,19.80
2018-05-29T22:20:51.833Z,22.10
2018-05-29T22:23:19.365Z,24.03
2018-05-29T22:25:46.894Z,24.00
2018-05-29T22:28:14.423Z,22.43
2018-05-29T22:30:42.043Z,24.10
2018-05-29T22:33:09.573Z,24.17
2018-05-29T22:35:37.128Z,24.20
2018-05-29T22:38:04.724Z,25.20
2018-05-29T22:40:33.035Z,23.90
2018-05-29T22:43:00.945Z,24.57
2018-05-29T22:45:28.520Z,23.07
2018-05-29T22:47:57.349Z,22.27
2018-05-29T22:50:24.875Z,21.80
2018-05-29T22:52:52.858Z,23.10
2018-05-29T22:55:20.445Z,21.40
2018-05-29T22:57:48.313Z,20.13
2018-05-29T23:00:15.892Z,17.57
2018-05-29T23:02:43.440Z,18.73
2018-05-29T23:05:11.263Z,19.83
2018-05-29T23:07:39.727Z,20.30
2018-05-29T23:10:07.292Z,21.97
2018-05-29T23:12:34.846Z,22.53
2018-05-29T23:15:02.682Z,23.97
2018-05-29T23:17:30.224Z,23.90
2018-05-29T23:19:57.735Z,27.53
2018-05-29T23:22:25.277Z,25.73
2018-05-29T23:24:52.795Z,27.23
2018-05-29T23:27:21.271Z,26.20
2018-05-29T23:29:48.853Z,28.50
2018-05-29T23:32:16.435Z,27.37
2018-05-29T23:34:43.960Z,26.87
2018-05-29T23:37:11.493Z,28.13
2018-05-29T23:39:39.008Z,29.20
2018-05-29T23:42:06.580Z,28.27
2018-05-29T23:44:34.091Z,28.50
2018-05-29T23:47:01.627Z,31.70
2018-05-29T23:49:29.915Z,29.23
2018-05-29T23:51:57.431Z,29.57
2018-05-29T23:54:24.958Z,29.10
2018-05-29T23:56:52.480Z,31.40
2018-05-29T23:59:20.011Z,29.90
